sensor_id;sensor_type;location;lat;lon;timestamp;P1;durP1;ratioP1;P2;durP2;ratioP2
3095;SDS011;1558;42.700;23.360;2023-04-08T00:01:39;24.33;;;21.83;;
3095;SDS011;1558;42.700;23.360;2023-04-08T00:04:07;25.43;;;22.13;;
3095;SDS011;1558;42.700;23.360;2023-04-08T00:06:37;25.07;;;22.43;;
3095;SDS011;1558;42.700;23.360;2023-04-08T00:09:05;27.23;;;23.63;;
3095;SDS011;1558;42.700;23.360;2023-04-08T00:11:33;26.03;;;23.30;;
3095;SDS011;1558;42.700;23.360;2023-04-08T00:14:01;22.97;;;20.60;;
3095;SDS011;1558;42.700;23.360;2023-04-08T00:16:29;22.27;;;20.00;;
3095;SDS011;1558;42.700;23.360;2023-04-08T00:18:57;25.27;;;22.47;;
3095;SDS011;1558;42.700;23.360;2023-04-08T00:21:25;26.57;;;23.77;;
3095;SDS011;1558;42.700;23.360;2023-04-08T00:23:55;27.87;;;25.07;;
3095;SDS011;1558;42.700;23.360;2023-04-08T00:26:23;30.17;;;25.63;;
3095;SDS011;1558;42.700;23.360;2023-04-08T00:28:51;26.97;;;24.10;;
3095;SDS011;1558;42.700;23.360;2023-04-08T00:31:19;29.00;;;25.90;;
3095;SDS011;1558;42.700;23.360;2023-04-08T00:33:47;29.50;;;26.30;;
3095;SDS011;1558;42.700;23.360;2023-04-08T00:36:15;28.93;;;26.03;;
3095;SDS011;1558;42.700;23.360;2023-04-08T00:38:44;26.43;;;23.60;;
3095;SDS011;1558;42.700;23.360;2023-04-08T00:41:14;28.30;;;25.37;;
3095;SDS011;1558;42.700;23.360;2023-04-08T00:43:42;27.07;;;24.30;;
3095;SDS011;1558;42.700;23.360;2023-04-08T00:46:10;27.67;;;24.87;;
3095;SDS011;1558;42.700;23.360;2023-04-08T00:48:38;27.97;;;24.80;;
3095;SDS011;1558;42.700;23.360;2023-04-08T00:51:06;28.07;;;25.13;;
3095;SDS011;1558;42.700;23.360;2023-04-08T00:53:34;27.87;;;25.07;;
3095;SDS011;1558;42.700;23.360;2023-04-08T00:56:03;28.17;;;25.13;;
3095;SDS011;1558;42.700;23.360;2023-04-08T00:58:33;29.70;;;26.33;;
3095;SDS011;1558;42.700;23.360;2023-04-08T01:01:02;28.97;;;25.83;;
3095;SDS011;1558;42.700;23.360;2023-04-08T01:03:35;29.00;;;26.10;;
3095;SDS011;1558;42.700;23.360;2023-04-08T01:06:14;29.47;;;26.33;;
3095;SDS011;1558;42.700;23.360;2023-04-08T01:08:49;28.23;;;25.27;;
3095;SDS011;1558;42.700;23.360;2023-04-08T01:11:18;31.87;;;28.50;;
3095;SDS011;1558;42.700;23.360;2023-04-08T01:13:49;30.30;;;26.23;;
3095;SDS011;1558;42.700;23.360;2023-04-08T01:16:21;31.03;;;27.83;;
3095;SDS011;1558;42.700;23.360;2023-04-08T01:18:52;31.63;;;28.20;;
3095;SDS011;1558;42.700;23.360;2023-04-08T01:21:22;30.23;;;27.07;;
3095;SDS011;1558;42.700;23.360;2023-04-08T01:23:54;31.13;;;27.60;;
3095;SDS011;1558;42.700;23.360;2023-04-08T01:26:29;32.83;;;28.40;;
3095;SDS011;1558;42.700;23.360;2023-04-08T01:28:58;32.97;;;29.53;;
3095;SDS011;1558;42.700;23.360;2023-04-08T01:31:28;31.00;;;27.10;;
3095;SDS011;1558;42.700;23.360;2023-04-08T01:33:58;29.17;;;26.13;;
3095;SDS011;1558;42.700;23.360;2023-04-08T01:36:30;29.37;;;26.27;;
3095;SDS011;1558;42.700;23.360;2023-04-08T01:39:01;27.47;;;24.70;;
3095;SDS011;1558;42.700;23.360;2023-04-08T01:41:33;27.23;;;24.47;;
3095;SDS011;1558;42.700;23.360;2023-04-08T01:44:03;26.30;;;23.60;;
3095;SDS011;1558;42.700;23.360;2023-04-08T01:46:32;27.20;;;24.43;;
3095;SDS011;1558;42.700;23.360;2023-04-08T01:49:01;24.77;;;22.27;;
3095;SDS011;1558;42.700;23.360;2023-04-08T01:51:30;25.93;;;23.23;;
3095;SDS011;1558;42.700;23.360;2023-04-08T01:53:58;22.13;;;19.73;;
3095;SDS011;1558;42.700;23.360;2023-04-08T01:56:26;22.50;;;20.03;;
3095;SDS011;1558;42.700;23.360;2023-04-08T01:58:57;23.93;;;21.47;;
3095;SDS011;1558;42.700;23.360;2023-04-08T02:01:28;24.17;;;21.67;;
3095;SDS011;1558;42.700;23.360;2023-04-08T02:03:57;24.93;;;22.33;;
3095;SDS011;1558;42.700;23.360;2023-04-08T02:06:27;26.13;;;22.90;;
3095;SDS011;1558;42.700;23.360;2023-04-08T02:08:55;24.17;;;21.57;;
3095;SDS011;1558;42.700;23.360;2023-04-08T02:11:23;26.07;;;23.47;;
3095;SDS011;1558;42.700;23.360;2023-04-08T02:13:51;24.63;;;22.03;;
3095;SDS011;1558;42.700;23.360;2023-04-08T02:16:25;25.40;;;22.90;;
3095;SDS011;1558;42.700;23.360;2023-04-08T02:18:59;24.33;;;21.93;;
3095;SDS011;1558;42.700;23.360;2023-04-08T02:21:33;24.40;;;22.00;;
3095;SDS011;1558;42.700;23.360;2023-04-08T02:24:06;27.23;;;23.47;;
3095;SDS011;1558;42.700;23.360;2023-04-08T02:26:36;26.37;;;23.50;;
3095;SDS011;1558;42.700;23.360;2023-04-08T02:29:05;26.87;;;24.07;;
3095;SDS011;1558;42.700;23.360;2023-04-08T02:31:40;25.77;;;23.23;;
3095;SDS011;1558;42.700;23.360;2023-04-08T02:34:10;26.00;;;23.30;;
3095;SDS011;1558;42.700;23.360;2023-04-08T02:36:39;24.80;;;22.30;;
3095;SDS011;1558;42.700;23.360;2023-04-08T02:39:08;24.13;;;21.63;;
3095;SDS011;1558;42.700;23.360;2023-04-08T02:41:36;25.67;;;23.10;;
3095;SDS011;1558;42.700;23.360;2023-04-08T02:44:04;24.77;;;21.93;;
3095;SDS011;1558;42.700;23.360;2023-04-08T02:46:32;26.13;;;23.40;;
3095;SDS011;1558;42.700;23.360;2023-04-08T02:49:01;24.53;;;22.07;;
3095;SDS011;1558;42.700;23.360;2023-04-08T02:51:29;24.67;;;22.17;;
3095;SDS011;1558;42.700;23.360;2023-04-08T02:53:58;25.50;;;22.43;;
3095;SDS011;1558;42.700;23.360;2023-04-08T02:56:26;24.87;;;22.20;;
3095;SDS011;1558;42.700;23.360;2023-04-08T02:58:54;25.30;;;22.70;;
3095;SDS011;1558;42.700;23.360;2023-04-08T03:01:22;24.37;;;21.83;;
3095;SDS011;1558;42.700;23.360;2023-04-08T03:03:50;24.40;;;22.00;;
3095;SDS011;1558;42.700;23.360;2023-04-08T03:06:20;23.50;;;21.10;;
3095;SDS011;1558;42.700;23.360;2023-04-08T03:08:48;23.70;;;21.27;;
3095;SDS011;1558;42.700;23.360;2023-04-08T03:11:16;24.10;;;21.60;;
3095;SDS011;1558;42.700;23.360;2023-04-08T03:13:44;25.00;;;22.40;;
3095;SDS011;1558;42.700;23.360;2023-04-08T03:16:12;25.53;;;22.50;;
3095;SDS011;1558;42.700;23.360;2023-04-08T03:18:41;25.40;;;22.83;;
3095;SDS011;1558;42.700;23.360;2023-04-08T03:21:08;24.57;;;22.03;;
3095;SDS011;1558;42.700;23.360;2023-04-08T03:23:38;25.90;;;23.30;;
3095;SDS011;1558;42.700;23.360;2023-04-08T03:26:06;30.83;;;22.33;;
3095;SDS011;1558;42.700;23.360;2023-04-08T03:28:34;24.87;;;22.40;;
3095;SDS011;1558;42.700;23.360;2023-04-08T03:31:02;25.87;;;23.37;;
3095;SDS011;1558;42.700;23.360;2023-04-08T03:33:30;26.00;;;23.20;;
3095;SDS011;1558;42.700;23.360;2023-04-08T03:35:58;26.00;;;23.27;;
3095;SDS011;1558;42.700;23.360;2023-04-08T03:38:27;26.87;;;23.73;;
3095;SDS011;1558;42.700;23.360;2023-04-08T03:40:56;25.87;;;23.07;;
3095;SDS011;1558;42.700;23.360;2023-04-08T03:43:24;26.57;;;23.90;;
3095;SDS011;1558;42.700;23.360;2023-04-08T03:45:53;26.93;;;24.03;;
3095;SDS011;1558;42.700;23.360;2023-04-08T03:48:22;28.10;;;23.50;;
3095;SDS011;1558;42.700;23.360;2023-04-08T03:50:50;28.53;;;24.17;;
3095;SDS011;1558;42.700;23.360;2023-04-08T03:53:18;26.87;;;24.17;;
3095;SDS011;1558;42.700;23.360;2023-04-08T03:55:47;25.97;;;23.23;;
3095;SDS011;1558;42.700;23.360;2023-04-08T03:58:17;26.50;;;23.67;;
3095;SDS011;1558;42.700;23.360;2023-04-08T04:00:45;28.50;;;25.40;;
3095;SDS011;1558;42.700;23.360;2023-04-08T04:03:13;29.77;;;26.57;;
3095;SDS011;1558;42.700;23.360;2023-04-08T04:05:41;26.80;;;24.00;;
3095;SDS011;1558;42.700;23.360;2023-04-08T04:08:09;29.60;;;26.33;;
3095;SDS011;1558;42.700;23.360;2023-04-08T04:10:37;30.43;;;25.83;;
3095;SDS011;1558;42.700;23.360;2023-04-08T04:13:05;29.17;;;25.97;;
3095;SDS011;1558;42.700;23.360;2023-04-08T04:15:38;27.80;;;24.87;;
3095;SDS011;1558;42.700;23.360;2023-04-08T04:18:06;27.20;;;24.00;;
3095;SDS011;1558;42.700;23.360;2023-04-08T04:20:34;28.97;;;26.00;;
3095;SDS011;1558;42.700;23.360;2023-04-08T04:23:05;29.73;;;25.03;;
3095;SDS011;1558;42.700;23.360;2023-04-08T04:25:34;26.67;;;24.00;;
3095;SDS011;1558;42.700;23.360;2023-04-08T04:28:04;24.47;;;21.73;;
3095;SDS011;1558;42.700;23.360;2023-04-08T04:30:35;22.40;;;20.10;;
3095;SDS011;1558;42.700;23.360;2023-04-08T04:33:05;22.40;;;20.10;;
3095;SDS011;1558;42.700;23.360;2023-04-08T04:35:33;26.97;;;23.17;;
3095;SDS011;1558;42.700;23.360;2023-04-08T04:38:01;27.47;;;23.87;;
3095;SDS011;1558;42.700;23.360;2023-04-08T04:40:31;24.83;;;22.20;;
3095;SDS011;1558;42.700;23.360;2023-04-08T04:42:59;24.67;;;22.17;;
3095;SDS011;1558;42.700;23.360;2023-04-08T04:45:27;24.73;;;22.13;;
3095;SDS011;1558;42.700;23.360;2023-04-08T04:47:55;22.57;;;20.27;;
3095;SDS011;1558;42.700;23.360;2023-04-08T04:50:24;22.60;;;20.40;;
3095;SDS011;1558;42.700;23.360;2023-04-08T04:52:52;22.33;;;19.93;;
3095;SDS011;1558;42.700;23.360;2023-04-08T04:55:20;23.07;;;20.87;;
3095;SDS011;1558;42.700;23.360;2023-04-08T04:57:48;19.53;;;17.63;;
3095;SDS011;1558;42.700;23.360;2023-04-08T05:00:18;21.70;;;19.40;;
3095;SDS011;1558;42.700;23.360;2023-04-08T05:02:46;21.37;;;19.07;;
3095;SDS011;1558;42.700;23.360;2023-04-08T05:05:14;20.03;;;18.03;;
3095;SDS011;1558;42.700;23.360;2023-04-08T05:07:44;20.83;;;18.77;;
3095;SDS011;1558;42.700;23.360;2023-04-08T05:10:12;19.77;;;17.67;;
3095;SDS011;1558;42.700;23.360;2023-04-08T05:12:40;19.90;;;18.07;;
3095;SDS011;1558;42.700;23.360;2023-04-08T05:15:08;22.87;;;19.37;;
3095;SDS011;1558;42.700;23.360;2023-04-08T05:17:36;24.80;;;19.53;;
3095;SDS011;1558;42.700;23.360;2023-04-08T05:20:05;24.00;;;19.43;;
3095;SDS011;1558;42.700;23.360;2023-04-08T05:22:34;23.40;;;21.07;;
3095;SDS011;1558;42.700;23.360;2023-04-08T05:25:03;25.73;;;23.10;;
3095;SDS011;1558;42.700;23.360;2023-04-08T05:27:32;25.77;;;23.03;;
3095;SDS011;1558;42.700;23.360;2023-04-08T05:30:01;25.23;;;22.60;;
3095;SDS011;1558;42.700;23.360;2023-04-08T05:32:29;24.37;;;21.87;;
3095;SDS011;1558;42.700;23.360;2023-04-08T05:34:57;23.83;;;20.73;;
3095;SDS011;1558;42.700;23.360;2023-04-08T05:37:28;22.63;;;20.40;;
3095;SDS011;1558;42.700;23.360;2023-04-08T05:39:56;20.33;;;18.23;;
3095;SDS011;1558;42.700;23.360;2023-04-08T05:42:26;17.97;;;16.07;;
3095;SDS011;1558;42.700;23.360;2023-04-08T05:44:54;19.17;;;17.27;;
3095;SDS011;1558;42.700;23.360;2023-04-08T05:47:22;17.83;;;16.00;;
3095;SDS011;1558;42.700;23.360;2023-04-08T05:49:50;20.90;;;17.20;;
3095;SDS011;1558;42.700;23.360;2023-04-08T05:52:18;20.67;;;16.90;;
3095;SDS011;1558;42.700;23.360;2023-04-08T05:54:46;18.07;;;16.17;;
3095;SDS011;1558;42.700;23.360;2023-04-08T05:57:14;19.30;;;15.73;;
3095;SDS011;1558;42.700;23.360;2023-04-08T05:59:43;17.00;;;15.30;;
3095;SDS011;1558;42.700;23.360;2023-04-08T06:02:11;16.73;;;14.87;;
3095;SDS011;1558;42.700;23.360;2023-04-08T06:04:40;16.57;;;14.87;;
3095;SDS011;1558;42.700;23.360;2023-04-08T06:07:08;18.33;;;16.43;;
3095;SDS011;1558;42.700;23.360;2023-04-08T06:09:36;17.53;;;15.93;;
3095;SDS011;1558;42.700;23.360;2023-04-08T06:12:04;20.83;;;18.80;;
3095;SDS011;1558;42.700;23.360;2023-04-08T06:14:32;21.67;;;19.67;;
3095;SDS011;1558;42.700;23.360;2023-04-08T06:17:02;24.70;;;22.20;;
3095;SDS011;1558;42.700;23.360;2023-04-08T06:19:30;26.53;;;23.93;;
3095;SDS011;1558;42.700;23.360;2023-04-08T06:21:59;25.20;;;22.60;;
3095;SDS011;1558;42.700;23.360;2023-04-08T06:24:27;27.37;;;20.87;;
3095;SDS011;1558;42.700;23.360;2023-04-08T06:26:55;23.50;;;21.17;;
3095;SDS011;1558;42.700;23.360;2023-04-08T06:29:23;26.50;;;23.60;;
3095;SDS011;1558;42.700;23.360;2023-04-08T06:31:51;24.40;;;21.93;;
3095;SDS011;1558;42.700;23.360;2023-04-08T06:34:21;23.40;;;21.13;;
3095;SDS011;1558;42.700;23.360;2023-04-08T06:36:49;24.53;;;22.10;;
3095;SDS011;1558;42.700;23.360;2023-04-08T06:39:17;22.43;;;20.10;;
3095;SDS011;1558;42.700;23.360;2023-04-08T06:41:46;21.70;;;19.47;;
3095;SDS011;1558;42.700;23.360;2023-04-08T06:44:14;20.93;;;18.83;;
3095;SDS011;1558;42.700;23.360;2023-04-08T06:46:42;21.70;;;19.70;;
3095;SDS011;1558;42.700;23.360;2023-04-08T06:49:13;27.03;;;22.33;;
3095;SDS011;1558;42.700;23.360;2023-04-08T06:51:43;24.77;;;20.50;;
3095;SDS011;1558;42.700;23.360;2023-04-08T06:54:11;22.60;;;19.57;;
3095;SDS011;1558;42.700;23.360;2023-04-08T06:56:39;22.60;;;19.67;;
3095;SDS011;1558;42.700;23.360;2023-04-08T06:59:09;24.00;;;21.23;;
3095;SDS011;1558;42.700;23.360;2023-04-08T07:01:37;21.90;;;19.70;;
3095;SDS011;1558;42.700;23.360;2023-04-08T07:04:05;22.43;;;20.07;;
3095;SDS011;1558;42.700;23.360;2023-04-08T07:06:33;21.70;;;19.50;;
3095;SDS011;1558;42.700;23.360;2023-04-08T07:09:02;23.50;;;20.80;;
3095;SDS011;1558;42.700;23.360;2023-04-08T07:11:30;23.70;;;21.40;;
3095;SDS011;1558;42.700;23.360;2023-04-08T07:13:59;22.60;;;20.30;;
3095;SDS011;1558;42.700;23.360;2023-04-08T07:16:27;22.10;;;19.83;;
3095;SDS011;1558;42.700;23.360;2023-04-08T07:18:55;16.20;;;14.73;;
3095;SDS011;1558;42.700;23.360;2023-04-08T07:21:23;17.43;;;15.60;;
3095;SDS011;1558;42.700;23.360;2023-04-08T07:23:51;17.27;;;15.70;;
3095;SDS011;1558;42.700;23.360;2023-04-08T07:26:20;15.63;;;14.13;;
3095;SDS011;1558;42.700;23.360;2023-04-08T07:28:49;17.53;;;15.73;;
3095;SDS011;1558;42.700;23.360;2023-04-08T07:31:17;16.07;;;14.57;;
3095;SDS011;1558;42.700;23.360;2023-04-08T07:33:45;17.77;;;15.97;;
3095;SDS011;1558;42.700;23.360;2023-04-08T07:36:13;17.27;;;15.43;;
3095;SDS011;1558;42.700;23.360;2023-04-08T07:38:43;15.97;;;14.47;;
3095;SDS011;1558;42.700;23.360;2023-04-08T07:41:12;17.50;;;15.77;;
3095;SDS011;1558;42.700;23.360;2023-04-08T07:43:41;15.40;;;13.97;;
3095;SDS011;1558;42.700;23.360;2023-04-08T07:46:09;17.13;;;14.90;;
3095;SDS011;1558;42.700;23.360;2023-04-08T07:48:37;16.70;;;15.00;;
3095;SDS011;1558;42.700;23.360;2023-04-08T07:51:06;16.07;;;14.47;;
3095;SDS011;1558;42.700;23.360;2023-04-08T07:53:36;17.93;;;16.03;;
3095;SDS011;1558;42.700;23.360;2023-04-08T07:56:09;16.27;;;14.53;;
3095;SDS011;1558;42.700;23.360;2023-04-08T07:58:38;17.00;;;15.40;;
3095;SDS011;1558;42.700;23.360;2023-04-08T08:01:14;16.67;;;15.17;;
3095;SDS011;1558;42.700;23.360;2023-04-08T08:03:44;16.13;;;14.67;;
3095;SDS011;1558;42.700;23.360;2023-04-08T08:06:13;15.53;;;13.90;;
3095;SDS011;1558;42.700;23.360;2023-04-08T08:08:42;16.30;;;14.80;;
3095;SDS011;1558;42.700;23.360;2023-04-08T08:11:10;16.73;;;15.03;;
3095;SDS011;1558;42.700;23.360;2023-04-08T08:13:38;15.80;;;14.17;;
3095;SDS011;1558;42.700;23.360;2023-04-08T08:16:06;16.50;;;14.80;;
3095;SDS011;1558;42.700;23.360;2023-04-08T08:18:38;16.07;;;14.57;;
3095;SDS011;1558;42.700;23.360;2023-04-08T08:21:07;18.37;;;16.63;;
3095;SDS011;1558;42.700;23.360;2023-04-08T08:23:36;18.67;;;16.77;;
3095;SDS011;1558;42.700;23.360;2023-04-08T08:26:04;16.97;;;15.30;;
3095;SDS011;1558;42.700;23.360;2023-04-08T08:28:35;15.90;;;14.40;;
3095;SDS011;1558;42.700;23.360;2023-04-08T08:31:03;19.63;;;17.63;;
3095;SDS011;1558;42.700;23.360;2023-04-08T08:33:32;15.77;;;14.33;;
3095;SDS011;1558;42.700;23.360;2023-04-08T08:36:01;17.73;;;16.03;;
3095;SDS011;1558;42.700;23.360;2023-04-08T08:38:31;17.70;;;15.93;;
3095;SDS011;1558;42.700;23.360;2023-04-08T08:40:59;18.27;;;16.47;;
3095;SDS011;1558;42.700;23.360;2023-04-08T08:43:29;19.43;;;17.43;;
3095;SDS011;1558;42.700;23.360;2023-04-08T08:45:59;18.23;;;16.37;;
3095;SDS011;1558;42.700;23.360;2023-04-08T08:48:27;18.37;;;16.43;;
3095;SDS011;1558;42.700;23.360;2023-04-08T08:50:55;17.67;;;15.87;;
3095;SDS011;1558;42.700;23.360;2023-04-08T08:53:28;17.07;;;15.27;;
3095;SDS011;1558;42.700;23.360;2023-04-08T08:56:01;19.20;;;16.83;;
3095;SDS011;1558;42.700;23.360;2023-04-08T08:58:32;19.13;;;17.33;;
3095;SDS011;1558;42.700;23.360;2023-04-08T09:01:00;22.13;;;17.50;;
3095;SDS011;1558;42.700;23.360;2023-04-08T09:03:28;19.27;;;17.40;;
3095;SDS011;1558;42.700;23.360;2023-04-08T09:05:57;17.93;;;16.13;;
3095;SDS011;1558;42.700;23.360;2023-04-08T09:08:28;20.30;;;17.80;;
3095;SDS011;1558;42.700;23.360;2023-04-08T09:11:10;21.37;;;18.30;;
3095;SDS011;1558;42.700;23.360;2023-04-08T09:13:40;20.63;;;18.57;;
3095;SDS011;1558;42.700;23.360;2023-04-08T09:16:09;18.53;;;16.53;;
3095;SDS011;1558;42.700;23.360;2023-04-08T09:18:39;20.70;;;16.67;;
3095;SDS011;1558;42.700;23.360;2023-04-08T09:21:10;17.93;;;16.13;;
3095;SDS011;1558;42.700;23.360;2023-04-08T09:23:41;17.93;;;16.10;;
3095;SDS011;1558;42.700;23.360;2023-04-08T09:26:11;18.13;;;16.23;;
3095;SDS011;1558;42.700;23.360;2023-04-08T09:28:41;18.20;;;16.37;;
3095;SDS011;1558;42.700;23.360;2023-04-08T09:31:20;18.03;;;16.23;;
3095;SDS011;1558;42.700;23.360;2023-04-08T09:33:49;17.60;;;15.30;;
3095;SDS011;1558;42.700;23.360;2023-04-08T09:36:20;18.70;;;16.77;;
3095;SDS011;1558;42.700;23.360;2023-04-08T09:38:51;16.27;;;14.67;;
3095;SDS011;1558;42.700;23.360;2023-04-08T09:41:20;17.33;;;15.57;;
3095;SDS011;1558;42.700;23.360;2023-04-08T09:43:50;17.73;;;16.00;;
3095;SDS011;1558;42.700;23.360;2023-04-08T09:46:24;15.63;;;14.13;;
3095;SDS011;1558;42.700;23.360;2023-04-08T09:48:59;17.13;;;14.97;;
3095;SDS011;1558;42.700;23.360;2023-04-08T09:51:47;17.93;;;16.13;;
3095;SDS011;1558;42.700;23.360;2023-04-08T09:54:24;18.80;;;15.90;;
3095;SDS011;1558;42.700;23.360;2023-04-08T09:57:04;16.73;;;15.13;;
3095;SDS011;1558;42.700;23.360;2023-04-08T09:59:36;17.55;;;15.73;;
3095;SDS011;1558;42.700;23.360;2023-04-08T10:02:11;16.90;;;15.25;;
3095;SDS011;1558;42.700;23.360;2023-04-08T10:04:51;17.95;;;16.27;;
3095;SDS011;1558;42.700;23.360;2023-04-08T10:07:21;19.80;;;16.13;;
3095;SDS011;1558;42.700;23.360;2023-04-08T10:09:51;16.50;;;14.77;;
3095;SDS011;1558;42.700;23.360;2023-04-08T10:12:20;17.35;;;15.65;;
3095;SDS011;1558;42.700;23.360;2023-04-08T10:17:51;16.58;;;15.13;;
3095;SDS011;1558;42.700;23.360;2023-04-08T10:23:10;15.77;;;14.27;;
3095;SDS011;1558;42.700;23.360;2023-04-08T10:25:41;16.73;;;15.00;;
3095;SDS011;1558;42.700;23.360;2023-04-08T10:28:23;16.10;;;14.45;;
3095;SDS011;1558;42.700;23.360;2023-04-08T10:30:51;16.20;;;14.53;;
3095;SDS011;1558;42.700;23.360;2023-04-08T10:33:21;16.43;;;14.90;;
3095;SDS011;1558;42.700;23.360;2023-04-08T10:35:54;16.57;;;14.83;;
3095;SDS011;1558;42.700;23.360;2023-04-08T10:38:28;16.60;;;14.90;;
3095;SDS011;1558;42.700;23.360;2023-04-08T10:40:57;16.80;;;15.10;;
3095;SDS011;1558;42.700;23.360;2023-04-08T10:43:26;17.03;;;15.40;;
3095;SDS011;1558;42.700;23.360;2023-04-08T10:45:59;17.30;;;15.60;;
3095;SDS011;1558;42.700;23.360;2023-04-08T10:48:27;18.53;;;15.70;;
3095;SDS011;1558;42.700;23.360;2023-04-08T10:50:57;16.30;;;14.60;;
3095;SDS011;1558;42.700;23.360;2023-04-08T10:53:26;15.57;;;13.93;;
3095;SDS011;1558;42.700;23.360;2023-04-08T10:56:03;16.27;;;14.67;;
3095;SDS011;1558;42.700;23.360;2023-04-08T10:58:33;15.27;;;13.77;;
3095;SDS011;1558;42.700;23.360;2023-04-08T11:01:02;15.80;;;14.27;;
3095;SDS011;1558;42.700;23.360;2023-04-08T11:03:32;16.33;;;14.83;;
3095;SDS011;1558;42.700;23.360;2023-04-08T11:06:02;16.42;;;14.77;;
3095;SDS011;1558;42.700;23.360;2023-04-08T11:08:30;16.83;;;15.13;;
3095;SDS011;1558;42.700;23.360;2023-04-08T11:10:59;16.67;;;15.00;;
3095;SDS011;1558;42.700;23.360;2023-04-08T11:13:29;17.20;;;15.50;;
3095;SDS011;1558;42.700;23.360;2023-04-08T11:15:58;18.53;;;16.63;;
3095;SDS011;1558;42.700;23.360;2023-04-08T11:18:28;17.13;;;15.53;;
3095;SDS011;1558;42.700;23.360;2023-04-08T11:20:57;16.33;;;14.73;;
3095;SDS011;1558;42.700;23.360;2023-04-08T11:23:27;16.07;;;14.33;;
3095;SDS011;1558;42.700;23.360;2023-04-08T11:25:55;17.27;;;15.53;;
3095;SDS011;1558;42.700;23.360;2023-04-08T11:28:24;15.37;;;13.47;;
3095;SDS011;1558;42.700;23.360;2023-04-08T11:30:54;15.23;;;13.63;;
3095;SDS011;1558;42.700;23.360;2023-04-08T11:33:23;11.23;;;10.30;;
3095;SDS011;1558;42.700;23.360;2023-04-08T11:35:52;13.97;;;12.40;;
3095;SDS011;1558;42.700;23.360;2023-04-08T11:38:21;12.90;;;11.80;;
3095;SDS011;1558;42.700;23.360;2023-04-08T11:40:52;12.70;;;11.50;;
3095;SDS011;1558;42.700;23.360;2023-04-08T11:43:20;12.00;;;10.90;;
3095;SDS011;1558;42.700;23.360;2023-04-08T11:45:49;12.70;;;11.37;;
3095;SDS011;1558;42.700;23.360;2023-04-08T11:48:18;12.70;;;11.40;;
3095;SDS011;1558;42.700;23.360;2023-04-08T11:50:47;13.67;;;12.40;;
3095;SDS011;1558;42.700;23.360;2023-04-08T11:53:17;11.73;;;10.63;;
3095;SDS011;1558;42.700;23.360;2023-04-08T11:55:46;12.98;;;11.70;;
3095;SDS011;1558;42.700;23.360;2023-04-08T11:58:15;13.45;;;12.23;;
3095;SDS011;1558;42.700;23.360;2023-04-08T12:00:43;11.00;;;10.07;;
3095;SDS011;1558;42.700;23.360;2023-04-08T12:03:12;11.05;;;9.88;;
3095;SDS011;1558;42.700;23.360;2023-04-08T12:05:41;10.35;;;9.48;;
3095;SDS011;1558;42.700;23.360;2023-04-08T12:08:09;11.40;;;10.38;;
3095;SDS011;1558;42.700;23.360;2023-04-08T12:10:37;12.15;;;11.00;;
3095;SDS011;1558;42.700;23.360;2023-04-08T12:13:06;12.98;;;11.77;;
3095;SDS011;1558;42.700;23.360;2023-04-08T12:15:34;11.32;;;10.20;;
3095;SDS011;1558;42.700;23.360;2023-04-08T12:18:03;11.27;;;10.27;;
3095;SDS011;1558;42.700;23.360;2023-04-08T12:20:31;11.75;;;10.65;;
3095;SDS011;1558;42.700;23.360;2023-04-08T12:23:01;10.60;;;9.57;;
3095;SDS011;1558;42.700;23.360;2023-04-08T12:25:31;8.93;;;8.13;;
3095;SDS011;1558;42.700;23.360;2023-04-08T12:27:59;12.40;;;10.35;;
3095;SDS011;1558;42.700;23.360;2023-04-08T12:30:27;10.70;;;9.60;;
3095;SDS011;1558;42.700;23.360;2023-04-08T12:32:56;10.15;;;9.23;;
3095;SDS011;1558;42.700;23.360;2023-04-08T12:35:25;11.57;;;10.47;;
3095;SDS011;1558;42.700;23.360;2023-04-08T12:37:53;10.80;;;9.77;;
3095;SDS011;1558;42.700;23.360;2023-04-08T12:40:22;10.47;;;9.40;;
3095;SDS011;1558;42.700;23.360;2023-04-08T12:42:50;10.47;;;9.57;;
3095;SDS011;1558;42.700;23.360;2023-04-08T12:45:18;10.73;;;9.63;;
3095;SDS011;1558;42.700;23.360;2023-04-08T12:47:46;11.27;;;10.17;;
3095;SDS011;1558;42.700;23.360;2023-04-08T12:50:14;10.70;;;9.20;;
3095;SDS011;1558;42.700;23.360;2023-04-08T12:52:43;10.33;;;9.33;;
3095;SDS011;1558;42.700;23.360;2023-04-08T12:55:11;10.73;;;9.70;;
3095;SDS011;1558;42.700;23.360;2023-04-08T12:57:40;11.60;;;9.80;;
3095;SDS011;1558;42.700;23.360;2023-04-08T13:00:08;10.20;;;9.30;;
3095;SDS011;1558;42.700;23.360;2023-04-08T13:02:37;10.30;;;9.40;;
3095;SDS011;1558;42.700;23.360;2023-04-08T13:05:07;11.17;;;9.83;;
3095;SDS011;1558;42.700;23.360;2023-04-08T13:07:36;9.50;;;8.67;;
3095;SDS011;1558;42.700;23.360;2023-04-08T13:10:04;9.60;;;8.70;;
3095;SDS011;1558;42.700;23.360;2023-04-08T13:12:33;9.90;;;9.00;;
3095;SDS011;1558;42.700;23.360;2023-04-08T13:15:03;10.17;;;9.27;;
3095;SDS011;1558;42.700;23.360;2023-04-08T13:17:32;10.63;;;9.53;;
3095;SDS011;1558;42.700;23.360;2023-04-08T13:20:00;11.47;;;9.07;;
3095;SDS011;1558;42.700;23.360;2023-04-08T13:22:28;11.17;;;10.07;;
3095;SDS011;1558;42.700;23.360;2023-04-08T13:24:56;11.23;;;10.13;;
3095;SDS011;1558;42.700;23.360;2023-04-08T13:27:24;11.10;;;9.07;;
3095;SDS011;1558;42.700;23.360;2023-04-08T13:29:52;9.33;;;8.40;;
3095;SDS011;1558;42.700;23.360;2023-04-08T13:32:22;10.60;;;9.60;;
3095;SDS011;1558;42.700;23.360;2023-04-08T13:34:50;8.93;;;8.10;;
3095;SDS011;1558;42.700;23.360;2023-04-08T13:37:18;9.20;;;8.30;;
3095;SDS011;1558;42.700;23.360;2023-04-08T13:39:47;9.53;;;8.73;;
3095;SDS011;1558;42.700;23.360;2023-04-08T13:42:15;9.57;;;8.40;;
3095;SDS011;1558;42.700;23.360;2023-04-08T13:44:43;9.33;;;8.47;;
3095;SDS011;1558;42.700;23.360;2023-04-08T13:47:11;9.87;;;8.87;;
3095;SDS011;1558;42.700;23.360;2023-04-08T13:49:43;11.67;;;10.57;;
3095;SDS011;1558;42.700;23.360;2023-04-08T13:52:11;10.77;;;9.67;;
3095;SDS011;1558;42.700;23.360;2023-04-08T13:54:39;10.30;;;9.33;;
3095;SDS011;1558;42.700;23.360;2023-04-08T13:57:07;9.63;;;8.73;;
3095;SDS011;1558;42.700;23.360;2023-04-08T13:59:35;10.67;;;9.67;;
3095;SDS011;1558;42.700;23.360;2023-04-08T14:02:03;10.47;;;9.20;;
3095;SDS011;1558;42.700;23.360;2023-04-08T14:04:32;9.97;;;8.93;;
3095;SDS011;1558;42.700;23.360;2023-04-08T14:07:01;11.07;;;9.97;;
3095;SDS011;1558;42.700;23.360;2023-04-08T14:09:29;10.57;;;9.67;;
3095;SDS011;1558;42.700;23.360;2023-04-08T14:11:57;10.47;;;9.50;;
3095;SDS011;1558;42.700;23.360;2023-04-08T14:14:25;11.20;;;10.10;;
3095;SDS011;1558;42.700;23.360;2023-04-08T14:16:53;10.50;;;9.60;;
3095;SDS011;1558;42.700;23.360;2023-04-08T14:19:22;10.87;;;9.87;;
3095;SDS011;1558;42.700;23.360;2023-04-08T14:21:50;10.63;;;9.63;;
3095;SDS011;1558;42.700;23.360;2023-04-08T14:24:19;12.00;;;10.90;;
3095;SDS011;1558;42.700;23.360;2023-04-08T14:26:47;13.03;;;11.83;;
3095;SDS011;1558;42.700;23.360;2023-04-08T14:29:15;12.13;;;11.03;;
3095;SDS011;1558;42.700;23.360;2023-04-08T14:31:43;11.77;;;10.73;;
3095;SDS011;1558;42.700;23.360;2023-04-08T14:34:12;12.80;;;11.60;;
3095;SDS011;1558;42.700;23.360;2023-04-08T14:36:40;12.33;;;11.20;;
3095;SDS011;1558;42.700;23.360;2023-04-08T14:39:08;12.57;;;11.37;;
3095;SDS011;1558;42.700;23.360;2023-04-08T14:41:38;13.10;;;12.00;;
3095;SDS011;1558;42.700;23.360;2023-04-08T14:44:07;13.07;;;11.77;;
3095;SDS011;1558;42.700;23.360;2023-04-08T14:46:35;14.00;;;12.80;;
3095;SDS011;1558;42.700;23.360;2023-04-08T14:49:03;13.83;;;12.57;;
3095;SDS011;1558;42.700;23.360;2023-04-08T14:51:32;13.83;;;12.53;;
3095;SDS011;1558;42.700;23.360;2023-04-08T14:54:03;12.93;;;11.63;;